Terminal Aerodrome Forecast
Issued by NWS

Home | Current Version | Previous Version | Text Only | Print | Product List | Glossary On
Versions: 1 2 3 4 5 6 7 8 9 10 11 12 13 14 15 16 17 18 19 20
434
FTUS46 KSGX 232335
TAFCRQ
TAF
KCRQ 232335Z 2400/2424 26009KT P6SM -SHRA SCT028 BKN050 BKN120
      TEMPO 2400/2402 2SM TSRA BKN012CB
     FM240500 26009KT P6SM VCSH SCT015 BKN035
     FM241300 VRB06KT P6SM -SHRA SCT010 BKN035
      TEMPO 2413/2417 2SM RA SCT006 BKN025
     FM241700 VRB05KT P6SM VCSH SCT015 BKN035=

USA.gov is the U.S. government's official web portal to all federal, state and local government web resources and services.